sensor_id;sensor_type;location;lat;lon;timestamp;temperature;humidity
3727;DHT22;1879;45.876;12.300;2023-03-23T00:01:03;12.50;99.90
3727;DHT22;1879;45.876;12.300;2023-03-23T00:03:31;12.50;99.90
3727;DHT22;1879;45.876;12.300;2023-03-23T00:05:58;12.50;99.90
3727;DHT22;1879;45.876;12.300;2023-03-23T00:08:30;12.50;99.90
3727;DHT22;1879;45.876;12.300;2023-03-23T00:10:57;12.40;99.90
3727;DHT22;1879;45.876;12.300;2023-03-23T00:13:28;12.40;99.90
3727;DHT22;1879;45.876;12.300;2023-03-23T00:15:55;12.40;99.90
3727;DHT22;1879;45.876;12.300;2023-03-23T00:18:24;12.40;99.90
3727;DHT22;1879;45.876;12.300;2023-03-23T00:20:53;12.40;99.90
3727;DHT22;1879;45.876;12.300;2023-03-23T00:23:22;12.50;99.90
3727;DHT22;1879;45.876;12.300;2023-03-23T00:25:51;12.50;99.90
3727;DHT22;1879;45.876;12.300;2023-03-23T00:28:22;12.60;99.90
3727;DHT22;1879;45.876;12.300;2023-03-23T00:30:56;12.60;99.90
3727;DHT22;1879;45.876;12.300;2023-03-23T00:33:24;12.60;99.90
3727;DHT22;1879;45.876;12.300;2023-03-23T00:35:52;12.60;99.90
3727;DHT22;1879;45.876;12.300;2023-03-23T00:38:20;12.50;99.90
3727;DHT22;1879;45.876;12.300;2023-03-23T00:40:47;12.50;99.90
3727;DHT22;1879;45.876;12.300;2023-03-23T00:43:14;12.40;99.90
3727;DHT22;1879;45.876;12.300;2023-03-23T00:45:42;12.40;99.90
3727;DHT22;1879;45.876;12.300;2023-03-23T00:48:11;12.40;99.90
3727;DHT22;1879;45.876;12.300;2023-03-23T00:50:39;12.40;99.90
3727;DHT22;1879;45.876;12.300;2023-03-23T00:53:06;12.40;99.90
3727;DHT22;1879;45.876;12.300;2023-03-23T00:55:33;12.40;99.90
3727;DHT22;1879;45.876;12.300;2023-03-23T00:58:00;12.30;99.90
3727;DHT22;1879;45.876;12.300;2023-03-23T01:00:27;12.30;99.90
3727;DHT22;1879;45.876;12.300;2023-03-23T01:02:54;12.20;99.90
3727;DHT22;1879;45.876;12.300;2023-03-23T01:05:23;12.20;99.90
3727;DHT22;1879;45.876;12.300;2023-03-23T01:07:50;12.20;99.90
3727;DHT22;1879;45.876;12.300;2023-03-23T01:10:17;12.30;99.90
3727;DHT22;1879;45.876;12.300;2023-03-23T01:12:44;12.50;99.90
3727;DHT22;1879;45.876;12.300;2023-03-23T01:15:15;12.20;99.90
3727;DHT22;1879;45.876;12.300;2023-03-23T01:17:43;12.30;99.90
3727;DHT22;1879;45.876;12.300;2023-03-23T01:20:11;12.30;99.90
3727;DHT22;1879;45.876;12.300;2023-03-23T01:22:40;12.20;99.90
3727;DHT22;1879;45.876;12.300;2023-03-23T01:25:09;12.20;99.90
3727;DHT22;1879;45.876;12.300;2023-03-23T01:27:36;12.10;99.90
3727;DHT22;1879;45.876;12.300;2023-03-23T01:30:05;12.00;99.90
3727;DHT22;1879;45.876;12.300;2023-03-23T01:32:33;12.00;99.90
3727;DHT22;1879;45.876;12.300;2023-03-23T01:35:00;11.90;99.90
3727;DHT22;1879;45.876;12.300;2023-03-23T01:37:27;11.80;99.90
3727;DHT22;1879;45.876;12.300;2023-03-23T01:39:56;11.80;99.90
3727;DHT22;1879;45.876;12.300;2023-03-23T01:42:25;11.80;99.90
3727;DHT22;1879;45.876;12.300;2023-03-23T01:45:24;11.80;99.90
3727;DHT22;1879;45.876;12.300;2023-03-23T01:48:00;11.80;99.90
3727;DHT22;1879;45.876;12.300;2023-03-23T01:50:30;11.70;99.90
3727;DHT22;1879;45.876;12.300;2023-03-23T01:53:02;11.70;99.90
3727;DHT22;1879;45.876;12.300;2023-03-23T01:55:34;11.70;99.90
3727;DHT22;1879;45.876;12.300;2023-03-23T01:58:02;11.70;99.90
3727;DHT22;1879;45.876;12.300;2023-03-23T02:00:29;11.70;99.90
3727;DHT22;1879;45.876;12.300;2023-03-23T02:02:57;11.70;99.90
3727;DHT22;1879;45.876;12.300;2023-03-23T02:05:29;11.70;99.90
3727;DHT22;1879;45.876;12.300;2023-03-23T02:07:58;11.70;99.90
3727;DHT22;1879;45.876;12.300;2023-03-23T02:10:29;11.70;99.90
3727;DHT22;1879;45.876;12.300;2023-03-23T02:12:58;11.60;99.90
3727;DHT22;1879;45.876;12.300;2023-03-23T02:15:31;11.60;99.90
3727;DHT22;1879;45.876;12.300;2023-03-23T02:18:04;11.60;99.90
3727;DHT22;1879;45.876;12.300;2023-03-23T02:21:00;11.60;99.90
3727;DHT22;1879;45.876;12.300;2023-03-23T02:23:47;11.50;99.90
3727;DHT22;1879;45.876;12.300;2023-03-23T02:26:31;11.50;99.90
3727;DHT22;1879;45.876;12.300;2023-03-23T02:29:19;11.50;99.90
3727;DHT22;1879;45.876;12.300;2023-03-23T02:32:04;11.50;99.90
3727;DHT22;1879;45.876;12.300;2023-03-23T02:34:38;11.50;99.90
3727;DHT22;1879;45.876;12.300;2023-03-23T02:37:09;11.50;99.90
3727;DHT22;1879;45.876;12.300;2023-03-23T02:39:43;11.40;99.90
3727;DHT22;1879;45.876;12.300;2023-03-23T02:42:14;11.40;99.90
3727;DHT22;1879;45.876;12.300;2023-03-23T02:44:44;11.40;99.90
3727;DHT22;1879;45.876;12.300;2023-03-23T02:47:15;11.40;99.90
3727;DHT22;1879;45.876;12.300;2023-03-23T02:49:47;11.30;99.90
3727;DHT22;1879;45.876;12.300;2023-03-23T02:52:19;11.30;99.90
3727;DHT22;1879;45.876;12.300;2023-03-23T02:54:49;11.30;99.90
3727;DHT22;1879;45.876;12.300;2023-03-23T02:57:17;11.30;99.90
3727;DHT22;1879;45.876;12.300;2023-03-23T02:59:45;11.20;99.90
3727;DHT22;1879;45.876;12.300;2023-03-23T03:02:14;11.20;99.90
3727;DHT22;1879;45.876;12.300;2023-03-23T03:04:47;11.20;99.90
3727;DHT22;1879;45.876;12.300;2023-03-23T03:07:48;11.20;99.90
3727;DHT22;1879;45.876;12.300;2023-03-23T03:10:21;11.20;99.90
3727;DHT22;1879;45.876;12.300;2023-03-23T03:12:57;11.20;99.90
3727;DHT22;1879;45.876;12.300;2023-03-23T03:15:31;11.10;99.90
3727;DHT22;1879;45.876;12.300;2023-03-23T03:18:06;11.20;99.90
3727;DHT22;1879;45.876;12.300;2023-03-23T03:20:39;11.20;99.90
3727;DHT22;1879;45.876;12.300;2023-03-23T03:23:08;11.20;99.90
3727;DHT22;1879;45.876;12.300;2023-03-23T03:25:38;11.20;99.90
3727;DHT22;1879;45.876;12.300;2023-03-23T03:28:08;11.20;99.90
3727;DHT22;1879;45.876;12.300;2023-03-23T03:30:36;11.20;99.90
3727;DHT22;1879;45.876;12.300;2023-03-23T03:33:05;11.30;99.90
3727;DHT22;1879;45.876;12.300;2023-03-23T03:35:37;11.20;99.90
3727;DHT22;1879;45.876;12.300;2023-03-23T03:38:06;11.10;99.90
3727;DHT22;1879;45.876;12.300;2023-03-23T03:40:34;11.10;99.90
3727;DHT22;1879;45.876;12.300;2023-03-23T03:43:01;11.10;99.90
3727;DHT22;1879;45.876;12.300;2023-03-23T03:45:28;11.10;99.90
3727;DHT22;1879;45.876;12.300;2023-03-23T03:47:56;11.20;99.90
3727;DHT22;1879;45.876;12.300;2023-03-23T03:50:23;11.20;99.90
3727;DHT22;1879;45.876;12.300;2023-03-23T03:52:51;11.20;99.90
3727;DHT22;1879;45.876;12.300;2023-03-23T03:55:18;11.20;99.90
3727;DHT22;1879;45.876;12.300;2023-03-23T03:57:45;11.10;99.90
3727;DHT22;1879;45.876;12.300;2023-03-23T04:00:13;11.00;99.90
3727;DHT22;1879;45.876;12.300;2023-03-23T04:02:42;11.00;99.90
3727;DHT22;1879;45.876;12.300;2023-03-23T04:05:09;10.90;99.90
3727;DHT22;1879;45.876;12.300;2023-03-23T04:07:37;10.80;99.90
3727;DHT22;1879;45.876;12.300;2023-03-23T04:10:07;10.90;99.90
3727;DHT22;1879;45.876;12.300;2023-03-23T04:12:35;10.90;99.90
3727;DHT22;1879;45.876;12.300;2023-03-23T04:15:02;10.90;99.90
3727;DHT22;1879;45.876;12.300;2023-03-23T04:17:29;10.90;99.90
3727;DHT22;1879;45.876;12.300;2023-03-23T04:19:56;10.90;99.90
3727;DHT22;1879;45.876;12.300;2023-03-23T04:22:25;10.90;99.90
3727;DHT22;1879;45.876;12.300;2023-03-23T04:24:57;10.90;99.90
3727;DHT22;1879;45.876;12.300;2023-03-23T04:27:27;10.90;99.90
3727;DHT22;1879;45.876;12.300;2023-03-23T04:29:55;11.00;99.90
3727;DHT22;1879;45.876;12.300;2023-03-23T04:32:23;11.00;99.90
3727;DHT22;1879;45.876;12.300;2023-03-23T04:34:55;11.00;99.90
3727;DHT22;1879;45.876;12.300;2023-03-23T04:37:23;11.00;99.90
3727;DHT22;1879;45.876;12.300;2023-03-23T04:39:54;11.00;99.90
3727;DHT22;1879;45.876;12.300;2023-03-23T04:42:27;11.00;99.90
3727;DHT22;1879;45.876;12.300;2023-03-23T04:44:55;11.00;99.90
3727;DHT22;1879;45.876;12.300;2023-03-23T04:47:22;10.90;99.90
3727;DHT22;1879;45.876;12.300;2023-03-23T04:49:49;10.80;99.90
3727;DHT22;1879;45.876;12.300;2023-03-23T04:52:17;10.80;99.90
3727;DHT22;1879;45.876;12.300;2023-03-23T04:54:45;10.80;99.90
3727;DHT22;1879;45.876;12.300;2023-03-23T04:57:13;10.80;99.90
3727;DHT22;1879;45.876;12.300;2023-03-23T04:59:42;10.80;99.90
3727;DHT22;1879;45.876;12.300;2023-03-23T05:02:09;10.80;99.90
3727;DHT22;1879;45.876;12.300;2023-03-23T05:04:38;10.80;99.90
3727;DHT22;1879;45.876;12.300;2023-03-23T05:07:06;10.80;99.90
3727;DHT22;1879;45.876;12.300;2023-03-23T05:09:34;10.80;99.90
3727;DHT22;1879;45.876;12.300;2023-03-23T05:12:04;10.80;99.90
3727;DHT22;1879;45.876;12.300;2023-03-23T05:14:31;10.80;99.90
3727;DHT22;1879;45.876;12.300;2023-03-23T05:16:59;10.90;99.90
3727;DHT22;1879;45.876;12.300;2023-03-23T05:19:27;10.80;99.90
3727;DHT22;1879;45.876;12.300;2023-03-23T05:21:56;10.90;99.90
3727;DHT22;1879;45.876;12.300;2023-03-23T05:24:28;10.80;99.90
3727;DHT22;1879;45.876;12.300;2023-03-23T05:26:57;10.90;99.90
3727;DHT22;1879;45.876;12.300;2023-03-23T05:29:23;10.90;99.90
3727;DHT22;1879;45.876;12.300;2023-03-23T05:31:51;10.90;99.90
3727;DHT22;1879;45.876;12.300;2023-03-23T05:34:22;10.90;99.90
3727;DHT22;1879;45.876;12.300;2023-03-23T05:36:51;11.00;99.90
3727;DHT22;1879;45.876;12.300;2023-03-23T05:39:23;11.00;99.90
3727;DHT22;1879;45.876;12.300;2023-03-23T05:41:51;11.00;99.90
3727;DHT22;1879;45.876;12.300;2023-03-23T05:44:18;11.00;99.90
3727;DHT22;1879;45.876;12.300;2023-03-23T05:46:45;11.00;99.90
3727;DHT22;1879;45.876;12.300;2023-03-23T05:49:13;11.00;99.90
3727;DHT22;1879;45.876;12.300;2023-03-23T05:51:42;11.10;99.90
3727;DHT22;1879;45.876;12.300;2023-03-23T05:54:11;11.10;99.90
3727;DHT22;1879;45.876;12.300;2023-03-23T05:56:39;11.20;99.90
3727;DHT22;1879;45.876;12.300;2023-03-23T05:59:06;11.20;99.90
3727;DHT22;1879;45.876;12.300;2023-03-23T06:01:34;11.30;99.90
3727;DHT22;1879;45.876;12.300;2023-03-23T06:04:01;11.30;99.90
3727;DHT22;1879;45.876;12.300;2023-03-23T06:06:29;11.40;99.90
3727;DHT22;1879;45.876;12.300;2023-03-23T06:08:58;11.50;99.90
3727;DHT22;1879;45.876;12.300;2023-03-23T06:11:26;11.60;99.90
3727;DHT22;1879;45.876;12.300;2023-03-23T06:13:53;11.60;99.90
3727;DHT22;1879;45.876;12.300;2023-03-23T06:16:20;11.70;99.90
3727;DHT22;1879;45.876;12.300;2023-03-23T06:18:47;11.80;99.90
3727;DHT22;1879;45.876;12.300;2023-03-23T06:21:15;11.80;99.90
3727;DHT22;1879;45.876;12.300;2023-03-23T06:23:44;11.90;99.90
3727;DHT22;1879;45.876;12.300;2023-03-23T06:26:13;11.90;99.90
3727;DHT22;1879;45.876;12.300;2023-03-23T06:28:42;12.00;99.90
3727;DHT22;1879;45.876;12.300;2023-03-23T06:31:09;12.00;99.90
3727;DHT22;1879;45.876;12.300;2023-03-23T06:33:37;12.00;99.90
3727;DHT22;1879;45.876;12.300;2023-03-23T06:36:05;12.10;99.90
3727;DHT22;1879;45.876;12.300;2023-03-23T06:38:33;12.10;99.90
3727;DHT22;1879;45.876;12.300;2023-03-23T06:41:00;12.20;99.90
3727;DHT22;1879;45.876;12.300;2023-03-23T06:43:28;12.30;99.90
3727;DHT22;1879;45.876;12.300;2023-03-23T06:45:58;12.40;99.90
3727;DHT22;1879;45.876;12.300;2023-03-23T06:48:25;12.50;99.90
3727;DHT22;1879;45.876;12.300;2023-03-23T06:50:52;12.50;99.90
3727;DHT22;1879;45.876;12.300;2023-03-23T06:53:19;12.50;99.90
3727;DHT22;1879;45.876;12.300;2023-03-23T06:55:47;12.50;99.90
3727;DHT22;1879;45.876;12.300;2023-03-23T06:58:13;12.60;99.90
3727;DHT22;1879;45.876;12.300;2023-03-23T07:00:42;12.60;99.90
3727;DHT22;1879;45.876;12.300;2023-03-23T07:03:10;12.70;99.90
3727;DHT22;1879;45.876;12.300;2023-03-23T07:05:37;12.70;99.90
3727;DHT22;1879;45.876;12.300;2023-03-23T07:08:05;12.90;99.90
3727;DHT22;1879;45.876;12.300;2023-03-23T07:10:32;13.00;99.90
3727;DHT22;1879;45.876;12.300;2023-03-23T07:12:59;13.10;99.90
3727;DHT22;1879;45.876;12.300;2023-03-23T07:15:26;13.20;99.90
3727;DHT22;1879;45.876;12.300;2023-03-23T07:17:54;13.30;99.90
3727;DHT22;1879;45.876;12.300;2023-03-23T07:20:21;13.50;99.90
3727;DHT22;1879;45.876;12.300;2023-03-23T07:22:48;13.60;99.90
3727;DHT22;1879;45.876;12.300;2023-03-23T07:25:16;13.60;99.90
3727;DHT22;1879;45.876;12.300;2023-03-23T07:27:44;13.70;99.90
3727;DHT22;1879;45.876;12.300;2023-03-23T07:30:12;13.90;99.90
3727;DHT22;1879;45.876;12.300;2023-03-23T07:32:40;14.00;99.90
3727;DHT22;1879;45.876;12.300;2023-03-23T07:35:11;14.00;99.90
3727;DHT22;1879;45.876;12.300;2023-03-23T07:37:39;14.10;99.90
3727;DHT22;1879;45.876;12.300;2023-03-23T07:40:09;14.10;99.90
3727;DHT22;1879;45.876;12.300;2023-03-23T07:42:41;14.10;99.90
3727;DHT22;1879;45.876;12.300;2023-03-23T07:45:09;14.00;99.90
3727;DHT22;1879;45.876;12.300;2023-03-23T07:47:36;14.00;99.90
3727;DHT22;1879;45.876;12.300;2023-03-23T07:50:04;14.00;99.90
3727;DHT22;1879;45.876;12.300;2023-03-23T07:52:34;13.90;99.90
3727;DHT22;1879;45.876;12.300;2023-03-23T07:55:01;13.90;99.90
3727;DHT22;1879;45.876;12.300;2023-03-23T07:57:30;13.80;99.90
3727;DHT22;1879;45.876;12.300;2023-03-23T07:59:58;13.80;99.90
3727;DHT22;1879;45.876;12.300;2023-03-23T08:02:28;13.80;99.90
3727;DHT22;1879;45.876;12.300;2023-03-23T08:04:57;13.90;99.90
3727;DHT22;1879;45.876;12.300;2023-03-23T08:07:26;14.00;99.90
3727;DHT22;1879;45.876;12.300;2023-03-23T08:09:54;14.20;99.90
3727;DHT22;1879;45.876;12.300;2023-03-23T08:12:21;14.30;99.90
3727;DHT22;1879;45.876;12.300;2023-03-23T08:14:48;14.50;99.90
3727;DHT22;1879;45.876;12.300;2023-03-23T08:17:15;14.70;99.90
3727;DHT22;1879;45.876;12.300;2023-03-23T08:19:42;14.80;99.90
3727;DHT22;1879;45.876;12.300;2023-03-23T08:22:11;15.00;99.90
3727;DHT22;1879;45.876;12.300;2023-03-23T08:24:39;15.30;99.90
3727;DHT22;1879;45.876;12.300;2023-03-23T08:27:07;15.50;99.90
3727;DHT22;1879;45.876;12.300;2023-03-23T08:29:34;15.60;99.90
3727;DHT22;1879;45.876;12.300;2023-03-23T08:32:01;15.70;99.90
3727;DHT22;1879;45.876;12.300;2023-03-23T08:34:29;15.90;99.90
3727;DHT22;1879;45.876;12.300;2023-03-23T08:36:57;16.00;99.90
3727;DHT22;1879;45.876;12.300;2023-03-23T08:39:24;16.10;99.90
3727;DHT22;1879;45.876;12.300;2023-03-23T08:41:54;16.20;99.90
3727;DHT22;1879;45.876;12.300;2023-03-23T08:44:22;16.20;99.90
3727;DHT22;1879;45.876;12.300;2023-03-23T08:46:49;16.30;99.90
3727;DHT22;1879;45.876;12.300;2023-03-23T08:49:22;16.50;99.90
3727;DHT22;1879;45.876;12.300;2023-03-23T08:51:50;16.60;99.90
3727;DHT22;1879;45.876;12.300;2023-03-23T08:54:17;17.00;99.90
3727;DHT22;1879;45.876;12.300;2023-03-23T08:56:44;17.70;99.90
3727;DHT22;1879;45.876;12.300;2023-03-23T08:59:12;17.80;99.90
3727;DHT22;1879;45.876;12.300;2023-03-23T09:01:40;18.20;99.90
3727;DHT22;1879;45.876;12.300;2023-03-23T09:04:07;18.20;99.00
3727;DHT22;1879;45.876;12.300;2023-03-23T09:06:36;18.20;98.50
3727;DHT22;1879;45.876;12.300;2023-03-23T09:09:04;18.30;98.60
3727;DHT22;1879;45.876;12.300;2023-03-23T09:11:32;18.20;97.40
3727;DHT22;1879;45.876;12.300;2023-03-23T09:14:00;18.30;97.50
3727;DHT22;1879;45.876;12.300;2023-03-23T09:16:28;18.30;97.60
3727;DHT22;1879;45.876;12.300;2023-03-23T09:18:56;18.10;97.30
3727;DHT22;1879;45.876;12.300;2023-03-23T09:21:23;18.00;97.10
3727;DHT22;1879;45.876;12.300;2023-03-23T09:23:50;17.90;97.30
3727;DHT22;1879;45.876;12.300;2023-03-23T09:26:18;17.90;97.10
3727;DHT22;1879;45.876;12.300;2023-03-23T09:28:45;17.90;97.00
3727;DHT22;1879;45.876;12.300;2023-03-23T09:31:12;17.90;97.20
3727;DHT22;1879;45.876;12.300;2023-03-23T09:33:39;17.80;96.60
3727;DHT22;1879;45.876;12.300;2023-03-23T09:36:09;17.90;97.00
3727;DHT22;1879;45.876;12.300;2023-03-23T09:38:38;17.90;96.90
3727;DHT22;1879;45.876;12.300;2023-03-23T09:41:14;17.90;96.90
3727;DHT22;1879;45.876;12.300;2023-03-23T09:43:54;17.90;96.90
3727;DHT22;1879;45.876;12.300;2023-03-23T09:46:32;18.00;97.00
3727;DHT22;1879;45.876;12.300;2023-03-23T09:49:05;18.20;96.70
3727;DHT22;1879;45.876;12.300;2023-03-23T09:51:43;18.30;96.70
3727;DHT22;1879;45.876;12.300;2023-03-23T09:54:17;18.50;96.30
3727;DHT22;1879;45.876;12.300;2023-03-23T09:56:46;18.70;96.50
3727;DHT22;1879;45.876;12.300;2023-03-23T09:59:19;18.90;96.00
3727;DHT22;1879;45.876;12.300;2023-03-23T10:01:48;18.80;95.10
3727;DHT22;1879;45.876;12.300;2023-03-23T10:04:27;18.80;95.40
3727;DHT22;1879;45.876;12.300;2023-03-23T10:06:59;19.00;95.20
3727;DHT22;1879;45.876;12.300;2023-03-23T10:09:28;19.20;95.30
3727;DHT22;1879;45.876;12.300;2023-03-23T10:12:03;19.40;95.10
3727;DHT22;1879;45.876;12.300;2023-03-23T10:14:48;19.40;94.30
3727;DHT22;1879;45.876;12.300;2023-03-23T10:17:20;19.30;94.20
3727;DHT22;1879;45.876;12.300;2023-03-23T10:19:55;19.40;94.20
3727;DHT22;1879;45.876;12.300;2023-03-23T10:22:31;19.30;93.90
3727;DHT22;1879;45.876;12.300;2023-03-23T10:25:03;19.20;93.70
3727;DHT22;1879;45.876;12.300;2023-03-23T10:27:38;19.20;93.20
3727;DHT22;1879;45.876;12.300;2023-03-23T10:30:17;19.20;93.10
3727;DHT22;1879;45.876;12.300;2023-03-23T10:32:48;19.30;93.10
3727;DHT22;1879;45.876;12.300;2023-03-23T10:35:21;19.30;93.10
3727;DHT22;1879;45.876;12.300;2023-03-23T10:37:53;19.60;92.80
3727;DHT22;1879;45.876;12.300;2023-03-23T10:40:25;19.60;92.20
3727;DHT22;1879;45.876;12.300;2023-03-23T10:42:53;19.70;92.30
3727;DHT22;1879;45.876;12.300;2023-03-23T10:45:23;20.00;91.40
3727;DHT22;1879;45.876;12.300;2023-03-23T10:47:54;20.30;91.30
3727;DHT22;1879;45.876;12.300;2023-03-23T10:50:26;20.60;91.00
3727;DHT22;1879;45.876;12.300;2023-03-23T10:52:57;20.80;90.00
3727;DHT22;1879;45.876;12.300;2023-03-23T10:55:36;20.90;87.80
3727;DHT22;1879;45.876;12.300;2023-03-23T10:58:06;20.80;88.30
3727;DHT22;1879;45.876;12.300;2023-03-23T11:00:41;20.80;88.30
3727;DHT22;1879;45.876;12.300;2023-03-23T11:03:24;20.80;88.20
3727;DHT22;1879;45.876;12.300;2023-03-23T11:05:56;21.10;87.00
3727;DHT22;1879;45.876;12.300;2023-03-23T11:08:26;21.10;86.30
3727;DHT22;1879;45.876;12.300;2023-03-23T11:10:57;21.20;86.50
3727;DHT22;1879;45.876;12.300;2023-03-23T11:13:30;21.30;85.70
3727;DHT22;1879;45.876;12.300;2023-03-23T11:15:58;21.70;84.90
3727;DHT22;1879;45.876;12.300;2023-03-23T11:18:26;22.00;83.60
3727;DHT22;1879;45.876;12.300;2023-03-23T11:21:02;22.20;82.60
3727;DHT22;1879;45.876;12.300;2023-03-23T11:23:34;21.90;79.80
3727;DHT22;1879;45.876;12.300;2023-03-23T11:26:09;21.70;79.40
3727;DHT22;1879;45.876;12.300;2023-03-23T11:28:38;22.00;79.60
3727;DHT22;1879;45.876;12.300;2023-03-23T11:31:09;22.10;77.50
3727;DHT22;1879;45.876;12.300;2023-03-23T11:33:39;22.10;75.60
3727;DHT22;1879;45.876;12.300;2023-03-23T11:36:07;22.30;75.80
3727;DHT22;1879;45.876;12.300;2023-03-23T11:38:36;22.20;73.10
3727;DHT22;1879;45.876;12.300;2023-03-23T11:41:09;22.40;73.10
3727;DHT22;1879;45.876;12.300;2023-03-23T11:43:40;22.70;72.70
3727;DHT22;1879;45.876;12.300;2023-03-23T11:46:16;23.10;71.00
3727;DHT22;1879;45.876;12.300;2023-03-23T11:48:52;22.60;69.70
3727;DHT22;1879;45.876;12.300;2023-03-23T11:51:29;22.00;69.20
3727;DHT22;1879;45.876;12.300;2023-03-23T11:54:04;21.70;68.90
3727;DHT22;1879;45.876;12.300;2023-03-23T11:56:34;22.30;69.20
3727;DHT22;1879;45.876;12.300;2023-03-23T11:59:05;23.40;68.00
3727;DHT22;1879;45.876;12.300;2023-03-23T12:01:54;24.20;68.50
3727;DHT22;1879;45.876;12.300;2023-03-23T12:04:37;25.30;65.70
3727;DHT22;1879;45.876;12.300;2023-03-23T12:10:26;24.60;60.50
3727;DHT22;1879;45.876;12.300;2023-03-23T12:13:14;24.10;62.20
3727;DHT22;1879;45.876;12.300;2023-03-23T12:15:48;24.60;62.70
3727;DHT22;1879;45.876;12.300;2023-03-23T12:18:24;25.50;61.20
3727;DHT22;1879;45.876;12.300;2023-03-23T12:21:03;26.70;56.60
3727;DHT22;1879;45.876;12.300;2023-03-23T12:23:38;27.90;54.80
3727;DHT22;1879;45.876;12.300;2023-03-23T12:26:22;28.90;54.10
3727;DHT22;1879;45.876;12.300;2023-03-23T12:29:13;28.90;51.60
3727;DHT22;1879;45.876;12.300;2023-03-23T12:31:49;28.90;50.30
3727;DHT22;1879;45.876;12.300;2023-03-23T12:34:27;28.90;49.60
3727;DHT22;1879;45.876;12.300;2023-03-23T12:37:09;28.30;49.70
3727;DHT22;1879;45.876;12.300;2023-03-23T12:40:03;27.60;50.20
3727;DHT22;1879;45.876;12.300;2023-03-23T12:42:42;28.00;50.30
3727;DHT22;1879;45.876;12.300;2023-03-23T12:45:19;27.20;49.60
3727;DHT22;1879;45.876;12.300;2023-03-23T12:47:52;26.90;51.60
3727;DHT22;1879;45.876;12.300;2023-03-23T12:50:24;27.30;51.10
3727;DHT22;1879;45.876;12.300;2023-03-23T12:52:57;28.60;51.00
3727;DHT22;1879;45.876;12.300;2023-03-23T12:55:32;29.00;49.50
3727;DHT22;1879;45.876;12.300;2023-03-23T12:58:05;29.10;48.60
3727;DHT22;1879;45.876;12.300;2023-03-23T13:00:46;29.00;48.00
3727;DHT22;1879;45.876;12.300;2023-03-23T13:03:20;28.50;48.40
3727;DHT22;1879;45.876;12.300;2023-03-23T13:05:51;28.70;48.60
3727;DHT22;1879;45.876;12.300;2023-03-23T13:08:23;29.30;48.90
3727;DHT22;1879;45.876;12.300;2023-03-23T13:10:55;29.60;47.90
3727;DHT22;1879;45.876;12.300;2023-03-23T13:13:40;29.90;47.60
3727;DHT22;1879;45.876;12.300;2023-03-23T13:16:14;30.00;46.80
3727;DHT22;1879;45.876;12.300;2023-03-23T13:18:47;30.40;46.10
3727;DHT22;1879;45.876;12.300;2023-03-23T13:21:21;31.00;45.30
3727;DHT22;1879;45.876;12.300;2023-03-23T13:23:58;32.70;42.80
3727;DHT22;1879;45.876;12.300;2023-03-23T13:26:26;32.60;43.10
3727;DHT22;1879;45.876;12.300;2023-03-23T13:28:57;33.00;42.70
3727;DHT22;1879;45.876;12.300;2023-03-23T13:31:28;33.90;42.10
3727;DHT22;1879;45.876;12.300;2023-03-23T13:34:01;34.50;41.00
3727;DHT22;1879;45.876;12.300;2023-03-23T13:38:59;35.20;39.10
3727;DHT22;1879;45.876;12.300;2023-03-23T13:41:26;35.40;37.90
3727;DHT22;1879;45.876;12.300;2023-03-23T13:44:15;34.10;37.20
3727;DHT22;1879;45.876;12.300;2023-03-23T13:46:54;33.60;36.70
3727;DHT22;1879;45.876;12.300;2023-03-23T13:49:22;33.20;37.80
3727;DHT22;1879;45.876;12.300;2023-03-23T13:52:14;33.40;38.20
3727;DHT22;1879;45.876;12.300;2023-03-23T13:54:44;32.90;37.90
3727;DHT22;1879;45.876;12.300;2023-03-23T13:57:32;32.90;38.30
3727;DHT22;1879;45.876;12.300;2023-03-23T14:00:26;32.90;38.10
3727;DHT22;1879;45.876;12.300;2023-03-23T14:03:00;33.40;37.80
3727;DHT22;1879;45.876;12.300;2023-03-23T14:05:34;34.00;37.80
3727;DHT22;1879;45.876;12.300;2023-03-23T14:08:10;34.70;37.50
3727;DHT22;1879;45.876;12.300;2023-03-23T14:10:39;35.00;36.80
3727;DHT22;1879;45.876;12.300;2023-03-23T14:13:16;34.40;36.60
3727;DHT22;1879;45.876;12.300;2023-03-23T14:15:55;33.00;36.80
3727;DHT22;1879;45.876;12.300;2023-03-23T14:18:26;32.40;37.90
3727;DHT22;1879;45.876;12.300;2023-03-23T14:20:55;32.70;38.70
3727;DHT22;1879;45.876;12.300;2023-03-23T14:23:23;31.50;38.20
3727;DHT22;1879;45.876;12.300;2023-03-23T14:25:59;30.10;39.10
3727;DHT22;1879;45.876;12.300;2023-03-23T14:28:36;28.90;40.40
3727;DHT22;1879;45.876;12.300;2023-03-23T14:31:09;28.20;42.20
3727;DHT22;1879;45.876;12.300;2023-03-23T14:33:38;28.70;42.30
3727;DHT22;1879;45.876;12.300;2023-03-23T14:36:07;29.30;41.80
3727;DHT22;1879;45.876;12.300;2023-03-23T14:38:34;29.80;42.30
3727;DHT22;1879;45.876;12.300;2023-03-23T14:41:03;30.50;41.50
3727;DHT22;1879;45.876;12.300;2023-03-23T14:43:33;31.00;40.50
3727;DHT22;1879;45.876;12.300;2023-03-23T14:46:05;31.50;39.80
3727;DHT22;1879;45.876;12.300;2023-03-23T14:48:34;31.60;39.50
3727;DHT22;1879;45.876;12.300;2023-03-23T14:51:03;31.40;39.80
3727;DHT22;1879;45.876;12.300;2023-03-23T14:53:35;31.30;39.70
3727;DHT22;1879;45.876;12.300;2023-03-23T14:56:10;31.30;39.70
3727;DHT22;1879;45.876;12.300;2023-03-23T14:58:38;31.00;39.60
3727;DHT22;1879;45.876;12.300;2023-03-23T15:01:08;30.70;40.20
3727;DHT22;1879;45.876;12.300;2023-03-23T15:03:41;30.70;40.20
3727;DHT22;1879;45.876;12.300;2023-03-23T15:06:14;30.50;40.00
3727;DHT22;1879;45.876;12.300;2023-03-23T15:08:42;30.40;40.70
3727;DHT22;1879;45.876;12.300;2023-03-23T15:11:13;30.30;40.60
3727;DHT22;1879;45.876;12.300;2023-03-23T15:13:48;30.00;40.60
3727;DHT22;1879;45.876;12.300;2023-03-23T15:16:19;29.80;41.00
3727;DHT22;1879;45.876;12.300;2023-03-23T15:18:53;29.70;40.80
3727;DHT22;1879;45.876;12.300;2023-03-23T15:21:24;29.40;41.20
3727;DHT22;1879;45.876;12.300;2023-03-23T15:23:51;28.70;41.10
3727;DHT22;1879;45.876;12.300;2023-03-23T15:26:26;28.00;41.90
3727;DHT22;1879;45.876;12.300;2023-03-23T15:29:15;27.60;43.90
3727;DHT22;1879;45.876;12.300;2023-03-23T15:31:44;27.90;44.20
3727;DHT22;1879;45.876;12.300;2023-03-23T15:34:23;27.80;43.20
3727;DHT22;1879;45.876;12.300;2023-03-23T15:36:56;27.60;43.20
3727;DHT22;1879;45.876;12.300;2023-03-23T15:39:23;27.60;43.90
3727;DHT22;1879;45.876;12.300;2023-03-23T15:41:52;27.60;44.30
3727;DHT22;1879;45.876;12.300;2023-03-23T15:44:30;27.40;43.50
3727;DHT22;1879;45.876;12.300;2023-03-23T15:47:13;27.10;44.00
3727;DHT22;1879;45.876;12.300;2023-03-23T15:49:43;26.90;44.60
3727;DHT22;1879;45.876;12.300;2023-03-23T15:52:11;26.60;44.60
3727;DHT22;1879;45.876;12.300;2023-03-23T15:54:46;26.70;46.00
3727;DHT22;1879;45.876;12.300;2023-03-23T15:57:13;26.70;45.60
3727;DHT22;1879;45.876;12.300;2023-03-23T15:59:40;26.90;45.10
3727;DHT22;1879;45.876;12.300;2023-03-23T16:02:15;26.90;45.70
3727;DHT22;1879;45.876;12.300;2023-03-23T16:04:45;27.00;45.30
3727;DHT22;1879;45.876;12.300;2023-03-23T16:07:12;26.90;45.10
3727;DHT22;1879;45.876;12.300;2023-03-23T16:09:41;26.60;46.00
3727;DHT22;1879;45.876;12.300;2023-03-23T16:12:19;26.10;45.30
3727;DHT22;1879;45.876;12.300;2023-03-23T16:14:45;25.70;45.70